sensor_id;sensor_type;location;lat;lon;timestamp;P1;durP1;ratioP1;P2;durP2;ratioP2
9214;SDS011;4642;51.364;6.788;2023-05-16T00:00:55;11.73;;;8.53;;
9214;SDS011;4642;51.364;6.788;2023-05-16T00:03:22;11.73;;;9.03;;
9214;SDS011;4642;51.364;6.788;2023-05-16T00:05:47;13.33;;;9.40;;
9214;SDS011;4642;51.364;6.788;2023-05-16T00:08:14;12.30;;;7.93;;
9214;SDS011;4642;51.364;6.788;2023-05-16T00:10:40;8.53;;;5.37;;
9214;SDS011;4642;51.364;6.788;2023-05-16T00:13:05;7.50;;;4.30;;
9214;SDS011;4642;51.364;6.788;2023-05-16T00:15:31;5.30;;;3.20;;
9214;SDS011;4642;51.364;6.788;2023-05-16T00:17:57;4.43;;;2.70;;
9214;SDS011;4642;51.364;6.788;2023-05-16T00:20:24;3.27;;;2.77;;
9214;SDS011;4642;51.364;6.788;2023-05-16T00:22:50;7.87;;;3.97;;
9214;SDS011;4642;51.364;6.788;2023-05-16T00:25:16;6.67;;;4.30;;
9214;SDS011;4642;51.364;6.788;2023-05-16T00:27:42;8.10;;;4.00;;
9214;SDS011;4642;51.364;6.788;2023-05-16T00:30:07;5.40;;;3.50;;
9214;SDS011;4642;51.364;6.788;2023-05-16T00:32:34;5.67;;;3.70;;
9214;SDS011;4642;51.364;6.788;2023-05-16T00:35:00;8.13;;;3.97;;
9214;SDS011;4642;51.364;6.788;2023-05-16T00:37:25;4.30;;;3.80;;
9214;SDS011;4642;51.364;6.788;2023-05-16T00:39:51;5.90;;;3.47;;
9214;SDS011;4642;51.364;6.788;2023-05-16T00:42:20;7.50;;;3.80;;
9214;SDS011;4642;51.364;6.788;2023-05-16T00:44:46;6.00;;;3.40;;
9214;SDS011;4642;51.364;6.788;2023-05-16T00:47:12;9.10;;;4.03;;
9214;SDS011;4642;51.364;6.788;2023-05-16T00:49:38;6.80;;;4.17;;
9214;SDS011;4642;51.364;6.788;2023-05-16T00:52:04;8.57;;;4.03;;
9214;SDS011;4642;51.364;6.788;2023-05-16T00:54:30;8.10;;;4.33;;
9214;SDS011;4642;51.364;6.788;2023-05-16T00:56:55;9.27;;;5.37;;
9214;SDS011;4642;51.364;6.788;2023-05-16T00:59:24;8.57;;;5.37;;
9214;SDS011;4642;51.364;6.788;2023-05-16T01:01:51;9.53;;;5.13;;
9214;SDS011;4642;51.364;6.788;2023-05-16T01:04:17;8.30;;;5.50;;
9214;SDS011;4642;51.364;6.788;2023-05-16T01:06:43;8.73;;;4.83;;
9214;SDS011;4642;51.364;6.788;2023-05-16T01:09:09;8.27;;;5.30;;
9214;SDS011;4642;51.364;6.788;2023-05-16T01:11:44;7.20;;;4.83;;
9214;SDS011;4642;51.364;6.788;2023-05-16T01:14:16;6.50;;;4.80;;
9214;SDS011;4642;51.364;6.788;2023-05-16T01:22:46;9.10;;;4.67;;
9214;SDS011;4642;51.364;6.788;2023-05-16T01:25:34;11.77;;;4.73;;
9214;SDS011;4642;51.364;6.788;2023-05-16T01:28:09;7.80;;;4.20;;
9214;SDS011;4642;51.364;6.788;2023-05-16T01:30:38;8.00;;;3.30;;
9214;SDS011;4642;51.364;6.788;2023-05-16T01:33:05;8.83;;;3.27;;
9214;SDS011;4642;51.364;6.788;2023-05-16T01:35:30;11.93;;;3.43;;
9214;SDS011;4642;51.364;6.788;2023-05-16T01:38:03;12.80;;;3.70;;
9214;SDS011;4642;51.364;6.788;2023-05-16T01:40:54;12.77;;;3.30;;
9214;SDS011;4642;51.364;6.788;2023-05-16T01:43:41;7.23;;;2.40;;
9214;SDS011;4642;51.364;6.788;2023-05-16T01:46:10;6.00;;;3.07;;
9214;SDS011;4642;51.364;6.788;2023-05-16T01:48:41;11.63;;;2.57;;
9214;SDS011;4642;51.364;6.788;2023-05-16T01:51:17;8.00;;;2.97;;
9214;SDS011;4642;51.364;6.788;2023-05-16T01:53:46;9.47;;;3.03;;
9214;SDS011;4642;51.364;6.788;2023-05-16T01:56:14;10.07;;;3.43;;
9214;SDS011;4642;51.364;6.788;2023-05-16T01:58:41;8.50;;;3.43;;
9214;SDS011;4642;51.364;6.788;2023-05-16T02:01:08;7.17;;;3.70;;
9214;SDS011;4642;51.364;6.788;2023-05-16T02:03:33;12.40;;;4.37;;
9214;SDS011;4642;51.364;6.788;2023-05-16T02:05:59;11.90;;;3.60;;
9214;SDS011;4642;51.364;6.788;2023-05-16T02:08:25;19.50;;;4.07;;
9214;SDS011;4642;51.364;6.788;2023-05-16T02:10:51;11.17;;;4.00;;
9214;SDS011;4642;51.364;6.788;2023-05-16T02:13:17;13.17;;;4.00;;
9214;SDS011;4642;51.364;6.788;2023-05-16T02:15:43;10.90;;;3.77;;
9214;SDS011;4642;51.364;6.788;2023-05-16T02:18:09;15.97;;;3.90;;
9214;SDS011;4642;51.364;6.788;2023-05-16T02:20:35;15.80;;;4.13;;
9214;SDS011;4642;51.364;6.788;2023-05-16T02:23:01;17.57;;;3.93;;
9214;SDS011;4642;51.364;6.788;2023-05-16T02:25:27;15.50;;;4.10;;
9214;SDS011;4642;51.364;6.788;2023-05-16T02:27:53;11.00;;;3.80;;
9214;SDS011;4642;51.364;6.788;2023-05-16T02:30:18;11.73;;;3.93;;
9214;SDS011;4642;51.364;6.788;2023-05-16T02:32:44;16.80;;;4.57;;
9214;SDS011;4642;51.364;6.788;2023-05-16T02:35:10;14.80;;;4.23;;
9214;SDS011;4642;51.364;6.788;2023-05-16T02:37:35;19.07;;;4.30;;
9214;SDS011;4642;51.364;6.788;2023-05-16T02:40:02;13.47;;;4.30;;
9214;SDS011;4642;51.364;6.788;2023-05-16T02:42:29;15.03;;;4.57;;
9214;SDS011;4642;51.364;6.788;2023-05-16T02:44:56;15.00;;;5.00;;
9214;SDS011;4642;51.364;6.788;2023-05-16T02:47:21;14.03;;;4.53;;
9214;SDS011;4642;51.364;6.788;2023-05-16T02:49:47;13.20;;;3.97;;
9214;SDS011;4642;51.364;6.788;2023-05-16T02:52:13;18.67;;;4.57;;
9214;SDS011;4642;51.364;6.788;2023-05-16T02:54:38;13.83;;;4.00;;
9214;SDS011;4642;51.364;6.788;2023-05-16T02:57:04;15.17;;;4.30;;
9214;SDS011;4642;51.364;6.788;2023-05-16T02:59:29;13.40;;;4.43;;
9214;SDS011;4642;51.364;6.788;2023-05-16T03:01:55;15.13;;;4.10;;
9214;SDS011;4642;51.364;6.788;2023-05-16T03:04:20;16.70;;;4.70;;
9214;SDS011;4642;51.364;6.788;2023-05-16T03:06:47;20.10;;;3.93;;
9214;SDS011;4642;51.364;6.788;2023-05-16T03:09:15;12.13;;;3.70;;
9214;SDS011;4642;51.364;6.788;2023-05-16T03:11:40;11.07;;;3.83;;
9214;SDS011;4642;51.364;6.788;2023-05-16T03:14:06;14.93;;;4.13;;
9214;SDS011;4642;51.364;6.788;2023-05-16T03:16:32;15.93;;;3.90;;
9214;SDS011;4642;51.364;6.788;2023-05-16T03:18:58;18.63;;;3.60;;
9214;SDS011;4642;51.364;6.788;2023-05-16T03:21:23;14.07;;;3.47;;
9214;SDS011;4642;51.364;6.788;2023-05-16T03:23:49;12.23;;;3.37;;
9214;SDS011;4642;51.364;6.788;2023-05-16T03:26:14;15.40;;;3.60;;
9214;SDS011;4642;51.364;6.788;2023-05-16T03:28:40;20.17;;;3.07;;
9214;SDS011;4642;51.364;6.788;2023-05-16T03:31:05;19.23;;;3.53;;
9214;SDS011;4642;51.364;6.788;2023-05-16T03:33:31;8.77;;;2.43;;
9214;SDS011;4642;51.364;6.788;2023-05-16T03:35:56;12.13;;;2.90;;
9214;SDS011;4642;51.364;6.788;2023-05-16T03:38:22;13.17;;;2.67;;
9214;SDS011;4642;51.364;6.788;2023-05-16T03:40:48;19.33;;;3.13;;
9214;SDS011;4642;51.364;6.788;2023-05-16T03:43:13;15.60;;;2.03;;
9214;SDS011;4642;51.364;6.788;2023-05-16T03:45:39;11.13;;;2.67;;
9214;SDS011;4642;51.364;6.788;2023-05-16T03:48:04;16.67;;;2.87;;
9214;SDS011;4642;51.364;6.788;2023-05-16T03:50:30;9.77;;;2.37;;
9214;SDS011;4642;51.364;6.788;2023-05-16T03:52:55;13.33;;;3.10;;
9214;SDS011;4642;51.364;6.788;2023-05-16T03:55:21;13.13;;;3.17;;
9214;SDS011;4642;51.364;6.788;2023-05-16T03:57:46;14.00;;;2.70;;
9214;SDS011;4642;51.364;6.788;2023-05-16T04:00:14;18.00;;;2.73;;
9214;SDS011;4642;51.364;6.788;2023-05-16T04:02:40;14.10;;;3.07;;
9214;SDS011;4642;51.364;6.788;2023-05-16T04:05:07;11.33;;;3.13;;
9214;SDS011;4642;51.364;6.788;2023-05-16T04:07:34;11.10;;;3.13;;
9214;SDS011;4642;51.364;6.788;2023-05-16T04:10:00;18.20;;;3.10;;
9214;SDS011;4642;51.364;6.788;2023-05-16T04:12:26;21.43;;;3.93;;
9214;SDS011;4642;51.364;6.788;2023-05-16T04:14:51;16.97;;;3.57;;
9214;SDS011;4642;51.364;6.788;2023-05-16T04:17:17;13.17;;;3.03;;
9214;SDS011;4642;51.364;6.788;2023-05-16T04:19:42;11.83;;;2.80;;
9214;SDS011;4642;51.364;6.788;2023-05-16T04:22:08;12.67;;;2.90;;
9214;SDS011;4642;51.364;6.788;2023-05-16T04:24:33;10.53;;;2.83;;
9214;SDS011;4642;51.364;6.788;2023-05-16T04:26:59;11.37;;;2.70;;
9214;SDS011;4642;51.364;6.788;2023-05-16T04:29:25;13.10;;;2.53;;
9214;SDS011;4642;51.364;6.788;2023-05-16T04:31:51;10.57;;;2.33;;
9214;SDS011;4642;51.364;6.788;2023-05-16T04:34:16;14.97;;;3.00;;
9214;SDS011;4642;51.364;6.788;2023-05-16T04:36:42;14.13;;;3.00;;
9214;SDS011;4642;51.364;6.788;2023-05-16T04:39:07;13.33;;;3.23;;
9214;SDS011;4642;51.364;6.788;2023-05-16T04:41:33;13.37;;;2.90;;
9214;SDS011;4642;51.364;6.788;2023-05-16T04:44:00;14.80;;;2.90;;
9214;SDS011;4642;51.364;6.788;2023-05-16T04:46:29;16.03;;;3.47;;
9214;SDS011;4642;51.364;6.788;2023-05-16T04:48:55;15.97;;;3.20;;
9214;SDS011;4642;51.364;6.788;2023-05-16T04:51:20;15.80;;;2.77;;
9214;SDS011;4642;51.364;6.788;2023-05-16T04:53:46;7.93;;;2.20;;
9214;SDS011;4642;51.364;6.788;2023-05-16T04:56:12;7.13;;;2.10;;
9214;SDS011;4642;51.364;6.788;2023-05-16T04:58:37;12.83;;;2.40;;
9214;SDS011;4642;51.364;6.788;2023-05-16T05:01:03;15.30;;;2.73;;
9214;SDS011;4642;51.364;6.788;2023-05-16T05:03:28;13.93;;;3.47;;
9214;SDS011;4642;51.364;6.788;2023-05-16T05:05:54;18.13;;;3.13;;
9214;SDS011;4642;51.364;6.788;2023-05-16T05:08:20;12.00;;;2.93;;
9214;SDS011;4642;51.364;6.788;2023-05-16T05:10:45;10.20;;;2.83;;
9214;SDS011;4642;51.364;6.788;2023-05-16T05:13:11;8.20;;;2.40;;
9214;SDS011;4642;51.364;6.788;2023-05-16T05:15:36;11.70;;;2.83;;
9214;SDS011;4642;51.364;6.788;2023-05-16T05:18:02;12.10;;;2.60;;
9214;SDS011;4642;51.364;6.788;2023-05-16T05:20:28;10.73;;;3.07;;
9214;SDS011;4642;51.364;6.788;2023-05-16T05:22:54;10.73;;;2.40;;
9214;SDS011;4642;51.364;6.788;2023-05-16T05:25:19;15.60;;;2.70;;
9214;SDS011;4642;51.364;6.788;2023-05-16T05:27:45;16.33;;;2.57;;
9214;SDS011;4642;51.364;6.788;2023-05-16T05:30:11;12.17;;;2.03;;
9214;SDS011;4642;51.364;6.788;2023-05-16T05:32:36;14.60;;;2.30;;
9214;SDS011;4642;51.364;6.788;2023-05-16T05:35:02;14.07;;;2.53;;
9214;SDS011;4642;51.364;6.788;2023-05-16T05:37:28;11.30;;;2.10;;
9214;SDS011;4642;51.364;6.788;2023-05-16T05:39:54;16.60;;;2.00;;
9214;SDS011;4642;51.364;6.788;2023-05-16T05:42:20;15.83;;;2.50;;
9214;SDS011;4642;51.364;6.788;2023-05-16T05:44:46;14.83;;;2.90;;
9214;SDS011;4642;51.364;6.788;2023-05-16T05:47:11;11.40;;;2.43;;
9214;SDS011;4642;51.364;6.788;2023-05-16T05:49:37;12.77;;;2.47;;
9214;SDS011;4642;51.364;6.788;2023-05-16T05:52:03;13.10;;;2.10;;
9214;SDS011;4642;51.364;6.788;2023-05-16T05:54:29;13.93;;;2.77;;
9214;SDS011;4642;51.364;6.788;2023-05-16T05:56:58;12.80;;;2.57;;
9214;SDS011;4642;51.364;6.788;2023-05-16T05:59:24;8.93;;;2.67;;
9214;SDS011;4642;51.364;6.788;2023-05-16T06:01:49;8.20;;;2.50;;
9214;SDS011;4642;51.364;6.788;2023-05-16T06:04:17;11.20;;;2.83;;
9214;SDS011;4642;51.364;6.788;2023-05-16T06:06:45;14.53;;;3.30;;
9214;SDS011;4642;51.364;6.788;2023-05-16T06:09:11;14.23;;;2.80;;
9214;SDS011;4642;51.364;6.788;2023-05-16T06:11:38;12.10;;;2.47;;
9214;SDS011;4642;51.364;6.788;2023-05-16T06:14:04;9.60;;;2.47;;
9214;SDS011;4642;51.364;6.788;2023-05-16T06:16:30;15.90;;;3.83;;
9214;SDS011;4642;51.364;6.788;2023-05-16T06:18:55;17.70;;;2.47;;
9214;SDS011;4642;51.364;6.788;2023-05-16T06:21:21;10.87;;;2.20;;
9214;SDS011;4642;51.364;6.788;2023-05-16T06:23:47;13.67;;;2.17;;
9214;SDS011;4642;51.364;6.788;2023-05-16T06:26:12;10.60;;;2.60;;
9214;SDS011;4642;51.364;6.788;2023-05-16T06:28:38;12.00;;;2.50;;
9214;SDS011;4642;51.364;6.788;2023-05-16T06:31:03;11.50;;;2.80;;
9214;SDS011;4642;51.364;6.788;2023-05-16T06:33:29;10.53;;;2.23;;
9214;SDS011;4642;51.364;6.788;2023-05-16T06:35:55;8.33;;;2.40;;
9214;SDS011;4642;51.364;6.788;2023-05-16T06:38:20;10.43;;;2.40;;
9214;SDS011;4642;51.364;6.788;2023-05-16T06:40:46;10.90;;;2.30;;
9214;SDS011;4642;51.364;6.788;2023-05-16T06:43:12;13.30;;;2.10;;
9214;SDS011;4642;51.364;6.788;2023-05-16T06:45:37;9.07;;;2.20;;
9214;SDS011;4642;51.364;6.788;2023-05-16T06:48:03;10.83;;;2.47;;
9214;SDS011;4642;51.364;6.788;2023-05-16T06:50:31;13.53;;;2.77;;
9214;SDS011;4642;51.364;6.788;2023-05-16T06:52:57;10.30;;;2.80;;
9214;SDS011;4642;51.364;6.788;2023-05-16T06:55:22;10.20;;;2.63;;
9214;SDS011;4642;51.364;6.788;2023-05-16T06:57:48;14.90;;;3.00;;
9214;SDS011;4642;51.364;6.788;2023-05-16T07:00:13;10.40;;;2.50;;
9214;SDS011;4642;51.364;6.788;2023-05-16T07:02:39;7.73;;;2.73;;
9214;SDS011;4642;51.364;6.788;2023-05-16T07:05:05;18.20;;;2.80;;
9214;SDS011;4642;51.364;6.788;2023-05-16T07:07:31;10.57;;;2.63;;
9214;SDS011;4642;51.364;6.788;2023-05-16T07:09:57;7.13;;;2.27;;
9214;SDS011;4642;51.364;6.788;2023-05-16T07:12:22;10.53;;;2.00;;
9214;SDS011;4642;51.364;6.788;2023-05-16T07:14:48;9.73;;;2.20;;
9214;SDS011;4642;51.364;6.788;2023-05-16T07:17:13;6.17;;;1.77;;
9214;SDS011;4642;51.364;6.788;2023-05-16T07:19:40;7.30;;;2.00;;
9214;SDS011;4642;51.364;6.788;2023-05-16T07:22:05;7.10;;;1.60;;
9214;SDS011;4642;51.364;6.788;2023-05-16T07:24:31;7.30;;;1.70;;
9214;SDS011;4642;51.364;6.788;2023-05-16T07:26:56;12.00;;;2.43;;
9214;SDS011;4642;51.364;6.788;2023-05-16T07:29:22;9.60;;;2.10;;
9214;SDS011;4642;51.364;6.788;2023-05-16T07:31:47;6.33;;;1.83;;
9214;SDS011;4642;51.364;6.788;2023-05-16T07:34:13;10.73;;;2.77;;
9214;SDS011;4642;51.364;6.788;2023-05-16T07:36:38;8.07;;;1.93;;
9214;SDS011;4642;51.364;6.788;2023-05-16T07:39:05;9.70;;;2.20;;
9214;SDS011;4642;51.364;6.788;2023-05-16T07:41:30;8.43;;;2.03;;
9214;SDS011;4642;51.364;6.788;2023-05-16T07:43:56;7.63;;;1.70;;
9214;SDS011;4642;51.364;6.788;2023-05-16T07:46:21;11.30;;;2.40;;
9214;SDS011;4642;51.364;6.788;2023-05-16T07:48:47;5.83;;;2.50;;
9214;SDS011;4642;51.364;6.788;2023-05-16T07:51:13;8.20;;;2.23;;
9214;SDS011;4642;51.364;6.788;2023-05-16T07:53:38;7.53;;;2.00;;
9214;SDS011;4642;51.364;6.788;2023-05-16T07:56:04;4.63;;;1.77;;
9214;SDS011;4642;51.364;6.788;2023-05-16T07:58:30;5.83;;;1.90;;
9214;SDS011;4642;51.364;6.788;2023-05-16T08:00:56;6.60;;;1.73;;
9214;SDS011;4642;51.364;6.788;2023-05-16T08:03:22;11.53;;;2.73;;
9214;SDS011;4642;51.364;6.788;2023-05-16T08:05:47;10.27;;;2.27;;
9214;SDS011;4642;51.364;6.788;2023-05-16T08:08:13;10.47;;;2.53;;
9214;SDS011;4642;51.364;6.788;2023-05-16T08:10:39;10.83;;;2.33;;
9214;SDS011;4642;51.364;6.788;2023-05-16T08:13:04;7.10;;;1.93;;
9214;SDS011;4642;51.364;6.788;2023-05-16T08:15:30;12.33;;;2.27;;
9214;SDS011;4642;51.364;6.788;2023-05-16T08:17:56;10.43;;;2.10;;
9214;SDS011;4642;51.364;6.788;2023-05-16T08:20:23;10.30;;;2.37;;
9214;SDS011;4642;51.364;6.788;2023-05-16T08:22:49;7.93;;;1.87;;
9214;SDS011;4642;51.364;6.788;2023-05-16T08:25:15;7.20;;;2.00;;
9214;SDS011;4642;51.364;6.788;2023-05-16T08:27:43;6.17;;;1.30;;
9214;SDS011;4642;51.364;6.788;2023-05-16T08:30:09;4.60;;;1.87;;
9214;SDS011;4642;51.364;6.788;2023-05-16T08:32:36;5.70;;;1.47;;
9214;SDS011;4642;51.364;6.788;2023-05-16T08:35:01;10.40;;;1.50;;
9214;SDS011;4642;51.364;6.788;2023-05-16T08:37:27;7.90;;;1.73;;
9214;SDS011;4642;51.364;6.788;2023-05-16T08:39:53;13.00;;;2.13;;
9214;SDS011;4642;51.364;6.788;2023-05-16T08:42:18;10.00;;;1.50;;
9214;SDS011;4642;51.364;6.788;2023-05-16T08:44:44;2.63;;;1.20;;
9214;SDS011;4642;51.364;6.788;2023-05-16T08:47:10;5.90;;;1.27;;
9214;SDS011;4642;51.364;6.788;2023-05-16T08:49:42;8.57;;;1.60;;
9214;SDS011;4642;51.364;6.788;2023-05-16T08:52:11;6.70;;;1.37;;
9214;SDS011;4642;51.364;6.788;2023-05-16T08:54:38;6.57;;;1.93;;
9214;SDS011;4642;51.364;6.788;2023-05-16T08:57:04;9.60;;;1.67;;
9214;SDS011;4642;51.364;6.788;2023-05-16T08:59:30;8.33;;;1.50;;
9214;SDS011;4642;51.364;6.788;2023-05-16T09:01:56;6.30;;;1.60;;
9214;SDS011;4642;51.364;6.788;2023-05-16T09:04:22;9.00;;;1.70;;
9214;SDS011;4642;51.364;6.788;2023-05-16T09:06:49;3.97;;;1.00;;
9214;SDS011;4642;51.364;6.788;2023-05-16T09:09:16;8.10;;;1.60;;
9214;SDS011;4642;51.364;6.788;2023-05-16T09:11:42;7.97;;;1.97;;
9214;SDS011;4642;51.364;6.788;2023-05-16T09:14:07;4.23;;;1.17;;
9214;SDS011;4642;51.364;6.788;2023-05-16T09:16:33;5.30;;;1.43;;
9214;SDS011;4642;51.364;6.788;2023-05-16T09:18:59;7.63;;;1.60;;
9214;SDS011;4642;51.364;6.788;2023-05-16T09:21:29;5.20;;;1.10;;
9214;SDS011;4642;51.364;6.788;2023-05-16T09:24:05;9.27;;;1.33;;
9214;SDS011;4642;51.364;6.788;2023-05-16T09:26:32;9.07;;;1.27;;
9214;SDS011;4642;51.364;6.788;2023-05-16T09:28:59;6.13;;;1.70;;
9214;SDS011;4642;51.364;6.788;2023-05-16T09:31:26;7.67;;;1.73;;
9214;SDS011;4642;51.364;6.788;2023-05-16T09:34:00;5.03;;;1.20;;
9214;SDS011;4642;51.364;6.788;2023-05-16T09:36:26;5.57;;;1.33;;
9214;SDS011;4642;51.364;6.788;2023-05-16T09:38:51;7.90;;;1.43;;
9214;SDS011;4642;51.364;6.788;2023-05-16T09:41:17;4.17;;;1.03;;
9214;SDS011;4642;51.364;6.788;2023-05-16T09:43:43;4.10;;;1.20;;
9214;SDS011;4642;51.364;6.788;2023-05-16T09:46:15;6.30;;;1.00;;
9214;SDS011;4642;51.364;6.788;2023-05-16T09:48:43;8.90;;;1.90;;
9214;SDS011;4642;51.364;6.788;2023-05-16T09:51:12;3.67;;;1.30;;
9214;SDS011;4642;51.364;6.788;2023-05-16T09:53:39;4.50;;;1.40;;
9214;SDS011;4642;51.364;6.788;2023-05-16T09:56:06;9.67;;;1.50;;
9214;SDS011;4642;51.364;6.788;2023-05-16T09:58:35;9.93;;;1.30;;
9214;SDS011;4642;51.364;6.788;2023-05-16T10:01:02;5.57;;;1.53;;
9214;SDS011;4642;51.364;6.788;2023-05-16T10:03:28;4.83;;;1.40;;
9214;SDS011;4642;51.364;6.788;2023-05-16T10:05:54;5.03;;;1.50;;
9214;SDS011;4642;51.364;6.788;2023-05-16T10:08:21;4.63;;;1.83;;
9214;SDS011;4642;51.364;6.788;2023-05-16T10:10:51;7.67;;;1.90;;
9214;SDS011;4642;51.364;6.788;2023-05-16T10:13:22;11.90;;;2.00;;
9214;SDS011;4642;51.364;6.788;2023-05-16T10:15:50;8.37;;;1.40;;
9214;SDS011;4642;51.364;6.788;2023-05-16T10:18:20;6.27;;;1.57;;
9214;SDS011;4642;51.364;6.788;2023-05-16T10:20:46;7.97;;;1.47;;
9214;SDS011;4642;51.364;6.788;2023-05-16T10:23:16;5.97;;;1.20;;
9214;SDS011;4642;51.364;6.788;2023-05-16T10:25:44;4.43;;;1.10;;
9214;SDS011;4642;51.364;6.788;2023-05-16T10:28:11;6.70;;;1.77;;
9214;SDS011;4642;51.364;6.788;2023-05-16T10:30:42;5.57;;;1.50;;
9214;SDS011;4642;51.364;6.788;2023-05-16T10:33:10;7.53;;;1.33;;
9214;SDS011;4642;51.364;6.788;2023-05-16T10:35:38;8.53;;;1.60;;
9214;SDS011;4642;51.364;6.788;2023-05-16T10:38:03;5.80;;;1.67;;
9214;SDS011;4642;51.364;6.788;2023-05-16T10:40:31;5.20;;;1.50;;
9214;SDS011;4642;51.364;6.788;2023-05-16T10:42:59;5.13;;;1.70;;
9214;SDS011;4642;51.364;6.788;2023-05-16T10:45:26;6.60;;;1.50;;
9214;SDS011;4642;51.364;6.788;2023-05-16T10:47:53;4.33;;;1.40;;
9214;SDS011;4642;51.364;6.788;2023-05-16T10:50:32;11.00;;;1.53;;
9214;SDS011;4642;51.364;6.788;2023-05-16T11:14:23;3.43;;;1.00;;
9214;SDS011;4642;51.364;6.788;2023-05-16T11:16:51;3.27;;;0.90;;
9214;SDS011;4642;51.364;6.788;2023-05-16T11:19:39;2.97;;;1.10;;
9214;SDS011;4642;51.364;6.788;2023-05-16T11:22:07;4.10;;;1.20;;
9214;SDS011;4642;51.364;6.788;2023-05-16T11:24:36;4.20;;;1.37;;
9214;SDS011;4642;51.364;6.788;2023-05-16T11:27:03;3.20;;;1.00;;
9214;SDS011;4642;51.364;6.788;2023-05-16T11:29:33;3.33;;;1.00;;
9214;SDS011;4642;51.364;6.788;2023-05-16T11:32:00;3.47;;;1.10;;
9214;SDS011;4642;51.364;6.788;2023-05-16T11:34:30;3.50;;;1.10;;
9214;SDS011;4642;51.364;6.788;2023-05-16T11:36:59;3.50;;;1.40;;
9214;SDS011;4642;51.364;6.788;2023-05-16T11:39:26;2.73;;;1.20;;
9214;SDS011;4642;51.364;6.788;2023-05-16T11:41:54;3.97;;;1.37;;
9214;SDS011;4642;51.364;6.788;2023-05-16T11:44:20;1.27;;;0.77;;
9214;SDS011;4642;51.364;6.788;2023-05-16T11:46:45;1.37;;;0.67;;
9214;SDS011;4642;51.364;6.788;2023-05-16T11:49:11;3.00;;;1.40;;
9214;SDS011;4642;51.364;6.788;2023-05-16T11:51:41;6.73;;;1.40;;
9214;SDS011;4642;51.364;6.788;2023-05-16T11:54:11;5.30;;;1.30;;
9214;SDS011;4642;51.364;6.788;2023-05-16T11:56:37;5.43;;;1.40;;
9214;SDS011;4642;51.364;6.788;2023-05-16T11:59:06;5.13;;;1.40;;
9214;SDS011;4642;51.364;6.788;2023-05-16T12:01:33;5.90;;;1.40;;
9214;SDS011;4642;51.364;6.788;2023-05-16T12:04:01;3.27;;;1.23;;
9214;SDS011;4642;51.364;6.788;2023-05-16T12:06:31;3.70;;;1.47;;
9214;SDS011;4642;51.364;6.788;2023-05-16T12:08:57;2.43;;;1.13;;
9214;SDS011;4642;51.364;6.788;2023-05-16T12:11:23;8.23;;;1.60;;
9214;SDS011;4642;51.364;6.788;2023-05-16T12:13:48;3.70;;;1.20;;
9214;SDS011;4642;51.364;6.788;2023-05-16T12:16:14;5.07;;;1.10;;
9214;SDS011;4642;51.364;6.788;2023-05-16T12:18:40;7.17;;;1.07;;
9214;SDS011;4642;51.364;6.788;2023-05-16T12:21:06;3.43;;;1.40;;
9214;SDS011;4642;51.364;6.788;2023-05-16T12:23:32;6.20;;;1.00;;
9214;SDS011;4642;51.364;6.788;2023-05-16T12:25:58;3.40;;;0.73;;
9214;SDS011;4642;51.364;6.788;2023-05-16T12:28:30;2.57;;;0.80;;
9214;SDS011;4642;51.364;6.788;2023-05-16T12:31:00;4.10;;;1.07;;
9214;SDS011;4642;51.364;6.788;2023-05-16T12:33:26;2.17;;;0.80;;
9214;SDS011;4642;51.364;6.788;2023-05-16T12:35:52;9.77;;;1.20;;
9214;SDS011;4642;51.364;6.788;2023-05-16T12:38:18;4.63;;;1.17;;
9214;SDS011;4642;51.364;6.788;2023-05-16T12:40:44;2.97;;;1.03;;
9214;SDS011;4642;51.364;6.788;2023-05-16T12:45:56;3.27;;;0.70;;
9214;SDS011;4642;51.364;6.788;2023-05-16T12:48:22;3.43;;;0.60;;
9214;SDS011;4642;51.364;6.788;2023-05-16T12:50:53;1.90;;;0.70;;
9214;SDS011;4642;51.364;6.788;2023-05-16T12:53:19;2.33;;;0.63;;
9214;SDS011;4642;51.364;6.788;2023-05-16T12:55:44;5.20;;;1.00;;
9214;SDS011;4642;51.364;6.788;2023-05-16T12:58:11;3.90;;;1.53;;
9214;SDS011;4642;51.364;6.788;2023-05-16T13:00:37;4.63;;;0.90;;
9214;SDS011;4642;51.364;6.788;2023-05-16T13:03:03;3.93;;;0.90;;
9214;SDS011;4642;51.364;6.788;2023-05-16T13:05:29;3.60;;;0.73;;
9214;SDS011;4642;51.364;6.788;2023-05-16T13:07:55;2.10;;;1.00;;
9214;SDS011;4642;51.364;6.788;2023-05-16T13:10:21;3.03;;;0.87;;
9214;SDS011;4642;51.364;6.788;2023-05-16T13:12:46;3.10;;;1.23;;
9214;SDS011;4642;51.364;6.788;2023-05-16T13:15:12;3.03;;;0.80;;
9214;SDS011;4642;51.364;6.788;2023-05-16T13:17:39;3.20;;;1.13;;
9214;SDS011;4642;51.364;6.788;2023-05-16T13:20:07;3.20;;;0.90;;
9214;SDS011;4642;51.364;6.788;2023-05-16T13:22:37;3.53;;;1.07;;
9214;SDS011;4642;51.364;6.788;2023-05-16T13:25:06;2.23;;;0.80;;
9214;SDS011;4642;51.364;6.788;2023-05-16T13:27:32;1.77;;;0.80;;
9214;SDS011;4642;51.364;6.788;2023-05-16T13:29:58;5.17;;;0.83;;
9214;SDS011;4642;51.364;6.788;2023-05-16T13:32:24;3.13;;;1.10;;
9214;SDS011;4642;51.364;6.788;2023-05-16T13:34:50;2.33;;;1.00;;
9214;SDS011;4642;51.364;6.788;2023-05-16T13:37:19;4.30;;;1.20;;
9214;SDS011;4642;51.364;6.788;2023-05-16T13:39:44;3.03;;;1.07;;
9214;SDS011;4642;51.364;6.788;2023-05-16T13:42:10;2.90;;;1.03;;
9214;SDS011;4642;51.364;6.788;2023-05-16T13:44:35;2.40;;;0.93;;
9214;SDS011;4642;51.364;6.788;2023-05-16T13:47:01;2.43;;;0.90;;
9214;SDS011;4642;51.364;6.788;2023-05-16T13:49:27;3.33;;;1.03;;
9214;SDS011;4642;51.364;6.788;2023-05-16T13:51:53;4.37;;;1.10;;
9214;SDS011;4642;51.364;6.788;2023-05-16T13:54:19;3.03;;;1.33;;
9214;SDS011;4642;51.364;6.788;2023-05-16T13:56:46;2.87;;;1.20;;
9214;SDS011;4642;51.364;6.788;2023-05-16T13:59:12;4.17;;;1.10;;
9214;SDS011;4642;51.364;6.788;2023-05-16T14:01:38;3.93;;;1.10;;
9214;SDS011;4642;51.364;6.788;2023-05-16T14:04:03;5.20;;;1.00;;
9214;SDS011;4642;51.364;6.788;2023-05-16T14:06:29;3.67;;;1.37;;
9214;SDS011;4642;51.364;6.788;2023-05-16T14:08:55;3.27;;;1.23;;
9214;SDS011;4642;51.364;6.788;2023-05-16T14:11:21;6.33;;;1.47;;
9214;SDS011;4642;51.364;6.788;2023-05-16T14:13:50;2.97;;;1.07;;
9214;SDS011;4642;51.364;6.788;2023-05-16T14:16:16;4.63;;;1.53;;
9214;SDS011;4642;51.364;6.788;2023-05-16T14:18:42;3.47;;;1.40;;
9214;SDS011;4642;51.364;6.788;2023-05-16T14:21:07;4.07;;;1.07;;
9214;SDS011;4642;51.364;6.788;2023-05-16T14:23:33;6.83;;;1.40;;
9214;SDS011;4642;51.364;6.788;2023-05-16T14:25:58;3.80;;;1.07;;
9214;SDS011;4642;51.364;6.788;2023-05-16T14:28:24;4.87;;;1.63;;
9214;SDS011;4642;51.364;6.788;2023-05-16T14:30:50;5.00;;;1.50;;
9214;SDS011;4642;51.364;6.788;2023-05-16T14:33:16;4.07;;;1.50;;
9214;SDS011;4642;51.364;6.788;2023-05-16T14:35:41;3.33;;;1.40;;
9214;SDS011;4642;51.364;6.788;2023-05-16T14:38:07;2.80;;;1.47;;
9214;SDS011;4642;51.364;6.788;2023-05-16T14:40:33;2.00;;;1.33;;
9214;SDS011;4642;51.364;6.788;2023-05-16T14:42:59;3.67;;;1.30;;
9214;SDS011;4642;51.364;6.788;2023-05-16T14:45:27;3.00;;;1.33;;
9214;SDS011;4642;51.364;6.788;2023-05-16T14:47:53;7.77;;;1.67;;
9214;SDS011;4642;51.364;6.788;2023-05-16T14:50:19;7.60;;;2.03;;
9214;SDS011;4642;51.364;6.788;2023-05-16T14:52:44;4.70;;;1.10;;
9214;SDS011;4642;51.364;6.788;2023-05-16T14:55:10;3.20;;;1.30;;
9214;SDS011;4642;51.364;6.788;2023-05-16T14:57:35;6.93;;;1.50;;
9214;SDS011;4642;51.364;6.788;2023-05-16T15:00:01;2.00;;;1.20;;
9214;SDS011;4642;51.364;6.788;2023-05-16T15:02:27;4.50;;;1.50;;
9214;SDS011;4642;51.364;6.788;2023-05-16T15:04:53;3.57;;;1.47;;
9214;SDS011;4642;51.364;6.788;2023-05-16T15:07:18;4.80;;;1.70;;
9214;SDS011;4642;51.364;6.788;2023-05-16T15:09:44;4.67;;;1.63;;
9214;SDS011;4642;51.364;6.788;2023-05-16T15:12:10;4.43;;;1.47;;
9214;SDS011;4642;51.364;6.788;2023-05-16T15:14:35;6.53;;;1.60;;
9214;SDS011;4642;51.364;6.788;2023-05-16T15:17:01;5.03;;;2.10;;
9214;SDS011;4642;51.364;6.788;2023-05-16T15:19:27;5.60;;;1.43;;
9214;SDS011;4642;51.364;6.788;2023-05-16T15:21:53;4.63;;;1.60;;
9214;SDS011;4642;51.364;6.788;2023-05-16T15:24:18;5.87;;;1.57;;
9214;SDS011;4642;51.364;6.788;2023-05-16T15:26:44;4.30;;;1.67;;
9214;SDS011;4642;51.364;6.788;2023-05-16T15:29:09;3.70;;;1.50;;
9214;SDS011;4642;51.364;6.788;2023-05-16T15:31:35;2.53;;;1.23;;
9214;SDS011;4642;51.364;6.788;2023-05-16T15:34:01;3.20;;;1.17;;
9214;SDS011;4642;51.364;6.788;2023-05-16T15:36:26;4.20;;;1.50;;